createdAt,value
2023-03-07T00:03:52.735Z,16.978296
2023-03-07T00:08:54.240Z,16.52776
2023-03-07T00:13:55.745Z,16.181126
2023-03-07T00:18:57.258Z,16.864434
2023-03-07T00:23:58.722Z,17.12501
2023-03-07T00:29:00.236Z,17.268454
2023-03-07T00:34:01.797Z,16.966912
2023-03-07T00:39:03.316Z,17.06525
2023-03-07T00:44:04.834Z,16.356078
2023-03-07T00:49:06.360Z,16.41425
2023-03-07T00:54:08.018Z,16.2815
2023-03-07T00:59:09.533Z,15.777824
2023-03-07T01:04:11.116Z,16.190936
2023-03-07T01:09:12.562Z,16.226244
2023-03-07T01:14:14.092Z,16.080412
2023-03-07T01:19:15.627Z,16.644634
2023-03-07T01:24:17.239Z,16.618594
2023-03-07T01:29:18.697Z,16.807062
2023-03-07T01:34:20.167Z,17.133912
2023-03-07T01:39:21.724Z,16.388916
2023-03-07T01:44:23.298Z,17.102756
2023-03-07T01:49:24.866Z,17.979214
2023-03-07T01:54:26.464Z,17.691716
2023-03-07T01:59:28.002Z,16.759392
2023-03-07T02:04:29.510Z,17.381
2023-03-07T02:09:31.039Z,17.598846
2023-03-07T02:14:32.565Z,16.36791
2023-03-07T02:19:34.043Z,16.83777
2023-03-07T02:24:35.546Z,16.53677
2023-03-07T02:29:37.686Z,17.420542
2023-03-07T02:34:39.212Z,16.91916
2023-03-07T02:39:40.711Z,17.379304
2023-03-07T02:44:42.218Z,17.2906
2023-03-07T02:49:43.800Z,16.23444
2023-03-07T02:54:45.331Z,17.571924
2023-03-07T02:59:46.837Z,16.46059
2023-03-07T03:04:48.456Z,16.567492
2023-03-07T03:09:50.039Z,15.920034
2023-03-07T03:14:51.515Z,16.400926
2023-03-07T03:19:53.154Z,15.91059
2023-03-07T03:24:54.692Z,15.661046
2023-03-07T03:29:56.310Z,15.748176
2023-03-07T03:34:57.807Z,15.731404
2023-03-07T03:39:59.312Z,15.579846
2023-03-07T03:45:00.746Z,15.2356
2023-03-07T03:50:02.186Z,15.768204
2023-03-07T03:55:03.712Z,15.580986
2023-03-07T04:00:05.163Z,14.43368
2023-03-07T04:05:06.725Z,15.092156
2023-03-07T04:10:08.206Z,14.972554
2023-03-07T04:15:09.693Z,15.118806
2023-03-07T04:20:11.229Z,14.962404
2023-03-07T04:25:12.755Z,15.574716
2023-03-07T04:30:14.440Z,14.747476
2023-03-07T04:35:15.907Z,15.380794
2023-03-07T04:40:17.391Z,15.013154
2023-03-07T04:45:18.919Z,15.902028
2023-03-07T04:50:20.399Z,16.008562
2023-03-07T04:55:22.101Z,16.333308
2023-03-07T05:00:23.578Z,16.195252
2023-03-07T05:05:25.011Z,16.775364
2023-03-07T05:10:26.466Z,16.581604
2023-03-07T05:15:28.008Z,16.183514
2023-03-07T05:20:29.481Z,16.365876
2023-03-07T05:25:30.934Z,17.403852
2023-03-07T05:30:33.228Z,17.653124
2023-03-07T05:35:34.933Z,17.212914
2023-03-07T05:40:36.413Z,17.532192
2023-03-07T05:45:37.911Z,17.378612
2023-03-07T05:50:39.497Z,18.824042
2023-03-07T05:55:41.031Z,19.941944
2023-03-07T06:00:42.578Z,18.765096
2023-03-07T06:05:44.004Z,20.0275
2023-03-07T06:10:45.573Z,20.875368
2023-03-07T06:15:47.110Z,20.694852
2023-03-07T06:20:48.589Z,20.55096
2023-03-07T06:25:50.126Z,21.457978
2023-03-07T06:30:51.659Z,21.77419
2023-03-07T06:35:53.193Z,20.990126
2023-03-07T06:40:54.696Z,22.077538
2023-03-07T06:45:56.232Z,22.754172
2023-03-07T06:50:57.793Z,22.610728
2023-03-07T06:55:59.330Z,23.768472
2023-03-07T07:01:00.842Z,23.624526
2023-03-07T07:06:02.443Z,24.409256
2023-03-07T07:11:03.968Z,23.957334
2023-03-07T07:16:05.446Z,24.697786
2023-03-07T07:21:06.960Z,24.465814
2023-03-07T07:26:08.431Z,24.84716
2023-03-07T07:31:09.901Z,25.548926
2023-03-07T07:36:11.726Z,24.60877
2023-03-07T07:41:13.178Z,23.883176
2023-03-07T07:46:14.756Z,24.42957
2023-03-07T07:51:16.202Z,25.249228
2023-03-07T07:56:17.679Z,24.493618
2023-03-07T08:01:19.154Z,25.435498
2023-03-07T08:06:20.643Z,24.656888
2023-03-07T08:11:22.242Z,27.250434
2023-03-07T08:16:23.718Z,27.223512
2023-03-07T08:21:25.253Z,26.346928
2023-03-07T08:26:26.754Z,26.63075
2023-03-07T08:31:28.399Z,27.315568
2023-03-07T08:36:30.107Z,28.128388
2023-03-07T08:41:31.764Z,29.455444
2023-03-07T08:46:33.330Z,27.06529
2023-03-07T08:51:34.812Z,27.845652
2023-03-07T08:56:36.336Z,28.357484
2023-03-07T09:01:39.624Z,28.867716
2023-03-07T09:06:42.579Z,28.392114
2023-03-07T09:11:44.042Z,28.420366
2023-03-07T09:16:45.567Z,29.927084
2023-03-07T09:21:47.080Z,29.393648
2023-03-07T09:26:48.609Z,29.387026
2023-03-07T09:31:50.721Z,29.19545
2023-03-07T09:36:52.303Z,29.157252
2023-03-07T09:41:53.771Z,27.550594
2023-03-07T09:46:55.345Z,29.599132
2023-03-07T09:51:56.827Z,28.884706
2023-03-07T09:56:58.299Z,28.988636
2023-03-07T10:01:59.796Z,29.392766
2023-03-07T10:07:01.421Z,28.904584
2023-03-07T10:12:04.782Z,29.002762
2023-03-07T10:17:06.715Z,28.386144
2023-03-07T10:22:08.148Z,28.870336
2023-03-07T10:27:09.758Z,29.675936
2023-03-07T10:32:11.486Z,28.830848
2023-03-07T10:37:13.125Z,30.522086
2023-03-07T10:42:14.651Z,29.897068
2023-03-07T10:47:16.187Z,30.380852
2023-03-07T10:52:17.881Z,31.940358
2023-03-07T10:57:19.353Z,30.353022
2023-03-07T11:02:20.897Z,31.835544
2023-03-07T11:07:22.436Z,31.911236
2023-03-07T11:12:23.969Z,29.582552
2023-03-07T11:17:25.415Z,29.516562
2023-03-07T11:22:26.914Z,31.616356
2023-03-07T11:27:28.414Z,31.41973
2023-03-07T11:32:29.920Z,29.471334
2023-03-07T11:37:31.494Z,30.268292
2023-03-07T11:42:32.999Z,30.75714
2023-03-07T11:47:34.510Z,31.142056
2023-03-07T11:52:36.043Z,30.211546
2023-03-07T11:57:37.556Z,31.72517
2023-03-07T12:02:39.125Z,29.992856
2023-03-07T12:07:40.610Z,29.39894
2023-03-07T12:12:42.333Z,29.85887
2023-03-07T12:17:43.781Z,28.916894
2023-03-07T12:22:45.288Z,29.355668
2023-03-07T12:27:46.797Z,29.0332
2023-03-07T12:32:48.410Z,28.671704
2023-03-07T12:37:49.908Z,29.49382
2023-03-07T12:42:51.541Z,28.49956
2023-03-07T12:47:53.284Z,28.446584
2023-03-07T12:52:54.736Z,27.628254
2023-03-07T12:57:56.267Z,27.77106
2023-03-07T13:02:58.695Z,27.022642
2023-03-07T13:08:00.230Z,27.372914
2023-03-07T13:13:02.127Z,24.598172
2023-03-07T13:18:03.622Z,24.436192
2023-03-07T13:23:05.429Z,23.702606
2023-03-07T13:28:06.940Z,24.305734
2023-03-07T13:33:09.198Z,24.48317
2023-03-07T13:38:10.741Z,22.898064
2023-03-07T13:43:12.182Z,22.815534
2023-03-07T13:48:13.693Z,22.566152
2023-03-07T13:53:15.215Z,22.886584
2023-03-07T13:58:16.977Z,23.917168
2023-03-07T14:03:18.521Z,23.865332
2023-03-07T14:08:20.005Z,23.092028
2023-03-07T14:13:21.699Z,23.981556
2023-03-07T14:18:23.244Z,23.919366
2023-03-07T14:23:24.784Z,24.056148
2023-03-07T14:28:26.670Z,24.250316
2023-03-07T14:33:28.227Z,23.167312
2023-03-07T14:38:29.754Z,24.178708
2023-03-07T14:43:31.244Z,22.78237
2023-03-07T14:48:32.757Z,21.76423
2023-03-07T14:53:34.309Z,21.914676
2023-03-07T14:58:35.746Z,21.93252
2023-03-07T15:03:37.334Z,21.93252
2023-03-07T15:08:38.848Z,22.23884
2023-03-07T15:13:40.376Z,21.146244
2023-03-07T15:18:42.033Z,20.990004
2023-03-07T15:23:43.579Z,20.459976
2023-03-07T15:28:45.073Z,20.35739
2023-03-07T15:33:46.529Z,19.469614
2023-03-07T15:38:48.073Z,18.903424
2023-03-07T15:43:49.578Z,18.64088
2023-03-07T15:48:51.106Z,19.546662
2023-03-07T15:53:52.546Z,19.606504
2023-03-07T15:58:54.053Z,19.709714
2023-03-07T16:03:56.048Z,18.90033
2023-03-07T16:08:57.616Z,18.92177
2023-03-07T16:13:59.221Z,18.342092
2023-03-07T16:19:00.846Z,18.713016
2023-03-07T16:24:02.417Z,18.726246
2023-03-07T16:29:03.943Z,18.50072
2023-03-07T16:34:05.472Z,18.560738
2023-03-07T16:39:07.031Z,18.915406
2023-03-07T16:44:08.511Z,19.236652
2023-03-07T16:49:09.984Z,18.54592
2023-03-07T16:54:11.445Z,19.292694
2023-03-07T16:59:12.954Z,19.226502
2023-03-07T17:04:14.443Z,17.742358
2023-03-07T17:09:15.990Z,17.7459
2023-03-07T17:14:17.501Z,16.931156
2023-03-07T17:19:19.219Z,17.210716
2023-03-07T17:24:21.215Z,17.33367
2023-03-07T17:29:22.892Z,17.737608
2023-03-07T17:34:24.422Z,16.895508
2023-03-07T17:39:25.929Z,17.101074
2023-03-07T17:44:27.438Z,16.81059
2023-03-07T17:49:28.959Z,17.446758
2023-03-07T17:54:30.479Z,17.333588
2023-03-07T17:59:32.175Z,17.674944
2023-03-07T18:04:33.661Z,17.525136
2023-03-07T18:09:35.129Z,17.61844
2023-03-07T18:14:36.658Z,18.067742
2023-03-07T18:19:38.177Z,18.009664
2023-03-07T18:24:39.698Z,17.814588
2023-03-07T18:29:41.209Z,18.33646
2023-03-07T18:34:42.945Z,17.831794
2023-03-07T18:39:44.442Z,17.684904
2023-03-07T18:44:45.883Z,16.633602
2023-03-07T18:49:47.346Z,17.059958
2023-03-07T18:54:48.893Z,17.319028
2023-03-07T18:59:50.387Z,16.186608
2023-03-07T19:04:52.073Z,16.407724
2023-03-07T19:09:53.807Z,16.526444
2023-03-07T19:14:55.345Z,16.634756
2023-03-07T19:19:56.801Z,16.841122
2023-03-07T19:24:58.400Z,17.051382
2023-03-07T19:29:59.919Z,17.301374
2023-03-07T19:35:01.364Z,17.035058
2023-03-07T19:40:02.976Z,17.02465
2023-03-07T19:45:04.462Z,17.017322
2023-03-07T19:50:05.897Z,17.632566
2023-03-07T19:55:07.347Z,17.316816
2023-03-07T20:00:08.956Z,17.176466
2023-03-07T20:05:10.523Z,16.083506
2023-03-07T20:10:12.071Z,17.962266
2023-03-07T20:15:13.576Z,18.177194
2023-03-07T20:20:15.171Z,17.85166
2023-03-07T20:25:16.783Z,17.874878
2023-03-07T20:30:18.241Z,18.272276
2023-03-07T20:35:19.773Z,17.702218
2023-03-07T20:40:21.272Z,18.073224
2023-03-07T20:45:22.722Z,17.525502
2023-03-07T20:50:24.214Z,17.804696
2023-03-07T20:55:25.684Z,17.782632
2023-03-07T21:00:27.103Z,18.34201
2023-03-07T21:05:28.661Z,18.07587
2023-03-07T21:10:30.094Z,18.21067
2023-03-07T21:15:31.552Z,18.270512
2023-03-07T21:20:33.295Z,17.92997
2023-03-07T21:25:34.864Z,18.038092
2023-03-07T21:30:36.324Z,17.678132
2023-03-07T21:35:37.958Z,18.372202
2023-03-07T21:40:39.570Z,18.143324
2023-03-07T21:45:41.071Z,18.02018
2023-03-07T21:50:42.602Z,17.790054
2023-03-07T21:55:44.133Z,17.838864
2023-03-07T22:00:45.637Z,16.555672
2023-03-07T22:05:47.562Z,16.6239
2023-03-07T22:10:49.069Z,16.651704
2023-03-07T22:15:50.571Z,15.963198
2023-03-07T22:20:52.046Z,16.560788
2023-03-07T22:25:53.543Z,16.705466
2023-03-07T22:30:55.007Z,16.811824
2023-03-07T22:35:56.559Z,17.451534
2023-03-07T22:40:58.082Z,16.190664
2023-03-07T22:45:59.639Z,17.125458
2023-03-07T22:51:01.140Z,16.709524
2023-03-07T22:56:02.573Z,16.518858
2023-03-07T23:01:04.167Z,16.623452
2023-03-07T23:06:05.636Z,16.55593
2023-03-07T23:11:07.148Z,16.941224
2023-03-07T23:16:08.850Z,15.545948
2023-03-07T23:21:10.320Z,15.964514
2023-03-07T23:26:11.828Z,16.928876
2023-03-07T23:31:13.424Z,16.193582
2023-03-07T23:36:14.941Z,16.477552
2023-03-07T23:41:16.917Z,16.481162
2023-03-07T23:46:18.435Z,16.36483
2023-03-07T23:51:19.990Z,16.56741
2023-03-07T23:56:21.507Z,16.416286
